Time;durP1;ratioP1;P1;durP2;ratioP2;P2;SDS_P1;SDS_P2;PMS_P1;PMS_P2;Temp;Humidity;BMP_temperature;BMP_pressure;BME280_temperature;BME280_humidity;BME280_pressure;Samples;Min_cycle;Max_cycle;Signal;HPM_P1;HPM_P2
2023/04/18 00:01:37;;;;;;;;;;;;;;;30.48;23.92;100499.78;5076618;28;1158;-21
2023/04/18 00:04:05;;;;;;;;;;;;;;;30.87;23.21;100510.78;5075823;28;1902;-23
2023/04/18 00:06:31;;;;;;;;;;;;;;;29.98;24.04;100508.38;5075958;28;1147;-21
2023/04/18 00:08:56;;;;;;;;;;;;;;;29.37;24.67;100497.41;5076124;28;1085;-21
2023/04/18 00:11:22;;;;;;;;;;;;;;;30.33;24.01;100497.28;5075676;28;1115;-22
2023/04/18 00:13:47;;;;;;;;;;;;;;;30.72;23.58;100496.56;5075991;28;1124;-21
2023/04/18 00:16:13;;;;;;;;;;;;;;;30.18;24.08;100508.34;5075789;28;1067;-24
2023/04/18 00:18:39;;;;;;;;;;;;;;;29.35;24.69;100500.31;5069739;28;1230;-21
2023/04/18 00:21:07;;;;;;;;;;;;;;;30.02;24.64;100510.44;5068230;28;1051;-21
2023/04/18 00:23:34;;;;;;;;;;;;;;;30.67;23.51;100492.63;5075719;28;1473;-21
2023/04/18 00:25:59;;;;;;;;;;;;;;;30.57;23.29;100483.25;5075943;28;1975;-21
2023/04/18 00:28:25;;;;;;;;;;;;;;;29.50;24.26;100492.00;5075688;28;1020;-21
2023/04/18 00:30:51;;;;;;;;;;;;;;;29.93;24.56;100487.28;5057498;28;1192;-21
2023/04/18 00:33:16;;;;;;;;;;;;;;;30.65;23.42;100485.72;5062530;28;1135;-21
2023/04/18 00:35:42;;;;;;;;;;;;;;;30.84;23.19;100473.19;5057958;28;1128;-21
2023/04/18 00:38:08;;;;;;;;;;;;;;;29.59;24.44;100473.72;5077016;28;1194;-22
2023/04/18 00:40:33;;;;;;;;;;;;;;;29.27;25.02;100463.44;5079259;28;1067;-21
2023/04/18 00:42:59;;;;;;;;;;;;;;;30.60;23.44;100461.94;5070656;28;1059;-21
2023/04/18 00:45:24;;;;;;;;;;;;;;;30.89;23.37;100457.06;5053990;28;1979;-21
2023/04/18 00:47:50;;;;;;;;;;;;;;;29.65;24.47;100451.22;5061120;28;1067;-21
2023/04/18 00:50:16;;;;;;;;;;;;;;;29.28;25.13;100465.09;5061166;28;1066;-22
2023/04/18 00:52:41;;;;;;;;;;;;;;;30.52;23.75;100462.19;5079020;28;1028;-21
2023/04/18 00:55:07;;;;;;;;;;;;;;;30.79;23.35;100453.94;5079495;28;1186;-21
2023/04/18 00:57:33;;;;;;;;;;;;;;;30.10;24.00;100452.44;5061573;28;1163;-21
2023/04/18 01:00:07;;;;;;;;;;;;;;;29.32;24.65;100455.53;5061019;28;1048;-22
2023/04/18 01:02:33;;;;;;;;;;;;;;;30.39;24.17;100458.47;5065794;28;1076;-22
2023/04/18 01:04:58;;;;;;;;;;;;;;;30.78;23.27;100458.53;5079187;28;1983;-22
2023/04/18 01:07:25;;;;;;;;;;;;;;;30.60;23.31;100452.97;5078762;28;1198;-21
2023/04/18 01:09:53;;;;;;;;;;;;;;;29.48;24.52;100460.75;5054518;28;1130;-22
2023/04/18 01:12:19;;;;;;;;;;;;;;;29.67;24.90;100462.69;5065964;28;1067;-21
2023/04/18 01:14:45;;;;;;;;;;;;;;;30.66;23.42;100460.28;5078941;28;1107;-22
2023/04/18 01:17:12;;;;;;;;;;;;;;;30.65;23.45;100461.31;5061080;28;1448;-22
2023/04/18 01:19:38;;;;;;;;;;;;;;;29.34;24.39;100466.16;5077767;28;1008;-23
2023/04/18 01:22:06;;;;;;;;;;;;;;;29.64;24.79;100468.53;5058140;28;1230;-21
2023/04/18 01:24:32;;;;;;;;;;;;;;;30.35;24.01;100456.38;5041446;28;1902;-22
2023/04/18 01:26:58;;;;;;;;;;;;;;;30.61;23.58;100465.50;5079003;28;1043;-23
2023/04/18 01:29:24;;;;;;;;;;;;;;;29.30;25.07;100451.34;5078744;28;1072;-21
2023/04/18 01:31:50;;;;;;;;;;;;;;;28.85;25.29;100444.50;5078526;28;938;-21
2023/04/18 01:34:19;;;;;;;;;;;;;;;30.30;23.94;100441.59;5078592;28;1131;-22
2023/04/18 01:36:45;;;;;;;;;;;;;;;30.60;23.52;100423.94;5078458;28;1059;-21
2023/04/18 01:39:11;;;;;;;;;;;;;;;29.65;24.47;100413.25;5078538;28;1159;-21
2023/04/18 01:41:36;;;;;;;;;;;;;;;29.21;24.74;100416.31;5078558;28;1059;-22
2023/04/18 01:44:02;;;;;;;;;;;;;;;30.25;24.18;100419.69;5077870;28;1973;-21
2023/04/18 01:46:27;;;;;;;;;;;;;;;30.48;23.76;100420.25;5060481;28;1585;-21
2023/04/18 01:48:53;;;;;;;;;;;;;;;30.73;23.38;100425.75;5078225;28;1063;-21
2023/04/18 01:51:20;;;;;;;;;;;;;;;29.12;24.96;100414.00;5059694;28;1127;-21
2023/04/18 01:53:45;;;;;;;;;;;;;;;28.98;25.54;100397.72;5077819;28;1175;-22
2023/04/18 01:56:11;;;;;;;;;;;;;;;30.38;23.83;100413.38;5060316;28;1108;-22
2023/04/18 01:58:37;;;;;;;;;;;;;;;30.63;23.53;100411.84;5077867;28;1182;-22
2023/04/18 02:01:02;;;;;;;;;;;;;;;29.19;25.14;100404.88;5060549;28;1139;-21
2023/04/18 02:03:28;;;;;;;;;;;;;;;28.94;25.29;100401.84;5059964;28;1151;-22
2023/04/18 02:05:54;;;;;;;;;;;;;;;30.30;23.94;100406.31;5078034;28;1976;-22
2023/04/18 02:08:19;;;;;;;;;;;;;;;30.50;23.63;100410.00;5056399;28;1186;-21
2023/04/18 02:10:45;;;;;;;;;;;;;;;30.23;23.97;100418.22;5040083;28;1199;-21
2023/04/18 02:13:11;;;;;;;;;;;;;;;29.19;24.87;100421.13;5054005;28;1606;-21
2023/04/18 02:15:36;;;;;;;;;;;;;;;29.77;24.60;100413.47;5077623;28;1058;-21
2023/04/18 02:18:02;;;;;;;;;;;;;;;30.60;23.61;100407.66;5064289;28;1141;-21
2023/04/18 02:20:30;;;;;;;;;;;;;;;29.93;24.46;100409.47;5070152;28;1135;-21
2023/04/18 02:22:57;;;;;;;;;;;;;;;28.85;25.60;100409.31;5057646;28;1210;-21
2023/04/18 02:25:25;;;;;;;;;;;;;;;29.53;25.23;100407.59;5039525;28;1937;-21
2023/04/18 02:27:51;;;;;;;;;;;;;;;30.19;24.11;100406.94;5054116;28;1076;-21
2023/04/18 02:30:17;;;;;;;;;;;;;;;30.27;24.12;100414.03;5077887;28;1086;-21
2023/04/18 02:32:42;;;;;;;;;;;;;;;30.39;24.01;100417.78;5076666;28;874;-21
2023/04/18 02:35:09;;;;;;;;;;;;;;;29.17;24.82;100417.78;5076901;28;1128;-21
2023/04/18 02:37:34;;;;;;;;;;;;;;;29.55;25.06;100415.50;5077536;28;1044;-21
2023/04/18 02:40:00;;;;;;;;;;;;;;;30.35;24.04;100416.53;5077418;28;1237;-21
2023/04/18 02:42:30;;;;;;;;;;;;;;;29.86;24.52;100426.81;5059939;28;1232;-21
2023/04/18 02:44:56;;;;;;;;;;;;;;;28.87;25.65;100415.38;5050745;28;1978;-21
2023/04/18 02:47:22;;;;;;;;;;;;;;;29.55;25.24;100410.94;5057034;28;2106;-22
2023/04/18 02:49:47;;;;;;;;;;;;;;;30.17;24.18;100412.56;5051286;28;1294;-21
2023/04/18 02:52:13;;;;;;;;;;;;;;;30.29;23.89;100412.78;5039121;28;1343;-22
2023/04/18 02:54:39;;;;;;;;;;;;;;;30.63;23.53;100409.94;5038898;28;1207;-21
2023/04/18 02:57:09;;;;;;;;;;;;;;;29.18;24.64;100408.59;5043351;28;941;-21
2023/04/18 02:59:57;;;;;;;;;;;;;;;29.62;24.87;100410.13;5076677;28;1201;-21
2023/04/18 03:02:58;;;;;;;;;;;;;;;30.48;23.80;100415.63;4994625;28;1288;-21
2023/04/18 03:05:47;;;;;;;;;;;;;;;29.23;25.08;100416.09;5050126;28;1984;-21
2023/04/18 03:08:13;;;;;;;;;;;;;;;28.59;25.95;100405.47;5058666;28;1313;-21
2023/04/18 03:10:38;;;;;;;;;;;;;;;29.96;24.44;100407.41;5058390;28;1254;-21
2023/04/18 03:13:04;;;;;;;;;;;;;;;30.15;24.21;100417.38;5058614;28;1391;-21
2023/04/18 03:15:30;;;;;;;;;;;;;;;29.68;23.03;100414.69;5058367;28;1297;-20
2023/04/18 03:17:56;;;;;;;;;;;;;;;28.07;24.35;100413.91;5058832;28;1354;-20
2023/04/18 03:20:22;;;;;;;;;;;;;;;29.23;24.29;100407.16;5052134;28;1578;-20
2023/04/18 03:22:47;;;;;;;;;;;;;;;29.30;23.75;100416.13;5056316;28;1258;-20
2023/04/18 03:25:17;;;;;;;;;;;;;;;29.38;23.17;100410.50;5058248;28;1905;-20
2023/04/18 03:27:48;;;;;;;;;;;;;;;29.38;22.94;100415.09;5058124;28;1238;-20
2023/04/18 03:30:16;;;;;;;;;;;;;;;29.41;23.00;100420.09;5058702;28;1118;-21
2023/04/18 03:32:47;;;;;;;;;;;;;;;29.46;22.77;100434.69;5057218;28;1131;-20
2023/04/18 03:35:13;;;;;;;;;;;;;;;29.57;22.63;100430.53;5046592;28;1288;-21
2023/04/18 03:37:40;;;;;;;;;;;;;;;29.54;22.64;100427.41;5044987;28;1226;-20
2023/04/18 03:40:07;;;;;;;;;;;;;;;29.39;22.69;100435.72;5058467;28;1204;-20
2023/04/18 03:42:34;;;;;;;;;;;;;;;29.38;22.71;100434.88;5068537;28;1298;-20
2023/04/18 03:44:59;;;;;;;;;;;;;;;29.46;22.63;100453.66;5052057;28;1965;-20
2023/04/18 03:47:25;;;;;;;;;;;;;;;29.77;22.37;100453.28;5057927;28;1888;-22
2023/04/18 03:49:55;;;;;;;;;;;;;;;27.33;25.88;100460.84;5056753;28;1292;-29
2023/04/18 03:52:22;;;;;;;;;;;;;;;25.94;27.28;100461.25;5054462;28;1332;-28
2023/04/18 03:54:48;;;;;;;;;;;;;;;27.29;25.79;100469.53;5048023;28;1160;-29
2023/04/18 03:57:15;;;;;;;;;;;;;;;26.23;26.88;100474.94;5054317;28;1512;-32
2023/04/18 03:59:41;;;;;;;;;;;;;;;25.48;28.09;100465.59;5047471;28;1131;-27
2023/04/18 04:02:06;;;;;;;;;;;;;;;27.35;25.01;100468.75;5055872;28;1216;-30
2023/04/18 04:04:32;;;;;;;;;;;;;;;26.89;24.83;100465.31;5053129;28;1977;-29
2023/04/18 04:06:58;;;;;;;;;;;;;;;24.39;28.33;100453.63;5073101;28;1107;-27
2023/04/18 04:09:24;;;;;;;;;;;;;;;24.86;28.67;100465.38;5043997;28;1219;-30
2023/04/18 04:11:49;;;;;;;;;;;;;;;27.94;24.28;100474.13;5065318;28;1354;-28
2023/04/18 04:14:15;;;;;;;;;;;;;;;28.78;23.02;100465.31;5066656;28;1174;-31
2023/04/18 04:16:44;;;;;;;;;;;;;;;29.29;22.30;100463.22;5061746;28;1273;-26
2023/04/18 04:19:13;;;;;;;;;;;;;;;29.75;22.03;100468.94;5052679;28;1303;-28
2023/04/18 04:21:47;;;;;;;;;;;;;;;30.05;21.54;100472.06;5051274;28;1138;-31
2023/04/18 04:24:15;;;;;;;;;;;;;;;27.19;25.03;100470.69;5059267;28;1937;-33
2023/04/18 04:26:45;;;;;;;;;;;;;;;26.52;25.46;100465.25;5062179;28;1333;-28
2023/04/18 04:29:18;;;;;;;;;;;;;;;29.31;22.48;100461.97;5059200;28;1337;-29
2023/04/18 04:31:45;;;;;;;;;;;;;;;29.81;21.84;100468.94;5047554;28;1206;-32
2023/04/18 04:34:15;;;;;;;;;;;;;;;29.99;21.60;100480.19;5061528;28;1324;-32
2023/04/18 04:36:42;;;;;;;;;;;;;;;30.05;21.38;100479.34;5061295;28;1456;-28
2023/04/18 04:39:11;;;;;;;;;;;;;;;29.97;20.97;100479.56;5054784;28;1267;-29
2023/04/18 04:42:03;;;;;;;;;;;;;;;26.29;25.72;100476.91;5066518;28;1574;-28
2023/04/18 04:44:37;;;;;;;;;;;;;;;28.35;23.75;100478.81;5042827;28;1907;-29
2023/04/18 04:47:03;;;;;;;;;;;;;;;29.63;21.89;100485.00;5041651;28;1224;-29
2023/04/18 04:49:33;;;;;;;;;;;;;;;29.92;21.51;100489.19;5057431;28;1616;-28
2023/04/18 04:51:59;;;;;;;;;;;;;;;30.02;21.51;100490.63;5054346;28;1040;-30
2023/04/18 04:54:25;;;;;;;;;;;;;;;30.13;21.29;100495.41;5061257;28;1381;-30
2023/04/18 04:56:51;;;;;;;;;;;;;;;27.26;24.07;100485.06;5060800;28;1247;-28
2023/04/18 04:59:18;;;;;;;;;;;;;;;25.90;25.98;100493.09;5060908;28;1253;-28
2023/04/18 05:01:45;;;;;;;;;;;;;;;28.74;22.94;100489.25;5079184;28;1078;-30
2023/04/18 05:04:11;;;;;;;;;;;;;;;28.86;22.19;100489.50;5060957;28;1918;-31
2023/04/18 05:06:36;;;;;;;;;;;;;;;26.21;25.80;100496.69;5067763;28;1276;-31
2023/04/18 05:09:02;;;;;;;;;;;;;;;27.45;24.70;100499.00;5064368;28;1203;-29
2023/04/18 05:11:28;;;;;;;;;;;;;;;29.08;22.66;100489.41;5072516;28;1164;-30
2023/04/18 05:13:54;;;;;;;;;;;;;;;29.51;22.15;100496.38;5065912;28;1069;-29
2023/04/18 05:16:19;;;;;;;;;;;;;;;29.72;21.70;100496.44;5066090;28;1401;-29
2023/04/18 05:18:45;;;;;;;;;;;;;;;29.83;21.73;100501.25;5066170;28;1229;-28
2023/04/18 05:21:10;;;;;;;;;;;;;;;29.40;21.68;100502.41;5069550;28;1176;-30
2023/04/18 05:23:36;;;;;;;;;;;;;;;26.56;25.35;100498.91;5078348;28;1218;-29
2023/04/18 05:26:02;;;;;;;;;;;;;;;27.53;24.72;100497.22;5066562;28;1902;-29
2023/04/18 05:28:28;;;;;;;;;;;;;;;29.42;22.40;100498.47;5073004;28;1101;-29
2023/04/18 05:30:59;;;;;;;;;;;;;;;29.83;21.90;100495.84;5071708;28;1155;-28
2023/04/18 05:33:26;;;;;;;;;;;;;;;29.91;21.71;100503.75;5072705;28;1093;-29
2023/04/18 05:35:51;;;;;;;;;;;;;;;29.93;21.49;100498.13;5074453;28;1434;-31
2023/04/18 05:38:17;;;;;;;;;;;;;;;27.67;24.06;100498.16;5067762;28;1283;-31
2023/04/18 05:40:42;;;;;;;;;;;;;;;26.48;25.95;100493.59;5070962;28;1405;-27
2023/04/18 05:43:08;;;;;;;;;;;;;;;28.98;23.21;100497.09;5059515;28;1152;-29
2023/04/18 05:45:34;;;;;;;;;;;;;;;29.78;21.87;100501.88;5071038;28;1914;-32
2023/04/18 05:47:59;;;;;;;;;;;;;;;30.03;21.87;100506.69;5070376;28;1132;-28
2023/04/18 05:50:25;;;;;;;;;;;;;;;28.91;22.54;100502.44;5058206;28;1171;-27
2023/04/18 05:52:51;;;;;;;;;;;;;;;26.79;25.37;100498.00;5076656;28;1020;-29
2023/04/18 05:55:16;;;;;;;;;;;;;;;27.92;24.85;100495.94;5078060;28;1116;-28
2023/04/18 05:57:42;;;;;;;;;;;;;;;29.52;22.31;100508.06;5069999;28;1315;-29
2023/04/18 06:00:11;;;;;;;;;;;;;;;30.01;21.82;100510.66;5063534;28;1144;-31
2023/04/18 06:02:40;;;;;;;;;;;;;;;26.92;25.20;100508.13;5064531;28;1437;-29
2023/04/18 06:05:06;;;;;;;;;;;;;;;26.69;25.44;100509.06;5071237;28;1979;-27
2023/04/18 06:07:31;;;;;;;;;;;;;;;28.88;23.28;100502.84;5068534;28;1175;-28
2023/04/18 06:09:57;;;;;;;;;;;;;;;29.74;21.93;100514.19;5061962;28;1330;-27
2023/04/18 06:12:23;;;;;;;;;;;;;;;26.82;25.21;100510.25;5064390;28;1096;-29
2023/04/18 06:14:48;;;;;;;;;;;;;;;27.12;25.54;100513.81;5060154;28;1370;-28
2023/04/18 06:17:14;;;;;;;;;;;;;;;29.43;22.42;100499.28;5069837;28;1379;-28
2023/04/18 06:19:40;;;;;;;;;;;;;;;29.94;21.53;100508.78;5061584;28;1271;-27
2023/04/18 06:22:05;;;;;;;;;;;;;;;27.69;23.61;100509.66;5063049;28;1144;-29
2023/04/18 06:24:31;;;;;;;;;;;;;;;26.44;25.51;100509.34;5057519;28;1906;-27
2023/04/18 06:26:56;;;;;;;;;;;;;;;28.71;23.38;100517.53;5053975;28;1507;-29
2023/04/18 06:29:22;;;;;;;;;;;;;;;29.11;22.02;100509.84;5062105;28;1318;-28
2023/04/18 06:31:49;;;;;;;;;;;;;;;26.59;25.39;100514.72;5070756;28;940;-27
2023/04/18 06:34:15;;;;;;;;;;;;;;;26.97;25.42;100516.50;5076853;28;1143;-29
2023/04/18 06:36:41;;;;;;;;;;;;;;;29.15;22.42;100516.50;5077379;28;1051;-27
2023/04/18 06:39:06;;;;;;;;;;;;;;;29.66;21.79;100511.69;5068198;28;1192;-29
2023/04/18 06:41:32;;;;;;;;;;;;;;;30.17;21.20;100512.09;5058625;28;1115;-28
2023/04/18 06:43:58;;;;;;;;;;;;;;;27.93;24.04;100505.72;5071244;28;1901;-28
2023/04/18 06:46:23;;;;;;;;;;;;;;;27.12;25.58;100505.72;5076985;28;881;-28
2023/04/18 06:48:49;;;;;;;;;;;;;;;29.15;23.05;100501.09;5059366;28;1031;-26
2023/04/18 06:51:15;;;;;;;;;;;;;;;30.01;22.23;100497.09;5064086;28;1040;-25
2023/04/18 06:53:40;;;;;;;;;;;;;;;27.69;24.72;100496.16;5063196;28;1120;-26
2023/04/18 06:56:06;;;;;;;;;;;;;;;27.55;25.55;100504.09;5063123;28;1114;-29
2023/04/18 06:58:32;;;;;;;;;;;;;;;29.60;23.17;100507.06;5062897;28;872;-26
2023/04/18 07:00:57;;;;;;;;;;;;;;;30.13;22.41;100508.16;5076993;28;1107;-28
2023/04/18 07:03:23;;;;;;;;;;;;;;;28.81;23.72;100513.63;5076904;28;1075;-26
2023/04/18 07:05:49;;;;;;;;;;;;;;;27.52;25.32;100507.19;5077057;28;1902;-32
2023/04/18 07:08:15;;;;;;;;;;;;;;;28.41;24.91;100504.22;5077076;28;1127;-28
2023/04/18 07:10:41;;;;;;;;;;;;;;;28.18;25.04;100507.16;5076110;28;862;-27
2023/04/18 07:13:06;;;;;;;;;;;;;;;27.44;26.07;100518.09;5076609;28;1059;-28
2023/04/18 07:15:35;;;;;;;;;;;;;;;28.89;24.54;100520.75;5063960;28;1393;-31
2023/04/18 07:18:01;;;;;;;;;;;;;;;29.65;23.49;100516.25;5064152;28;1267;-29
2023/04/18 07:20:26;;;;;;;;;;;;;;;30.15;22.96;100520.47;5058032;28;1028;-30
2023/04/18 07:22:52;;;;;;;;;;;;;;;27.92;25.57;100519.44;5062743;28;1286;-28
2023/04/18 07:25:18;;;;;;;;;;;;;;;27.67;26.27;100526.03;5075719;28;1922;-28
2023/04/18 07:27:43;;;;;;;;;;;;;;;29.61;23.91;100522.31;5068671;28;1442;-32
2023/04/18 07:32:06;;;;;;;;;;;;;;;27.56;27.00;100532.78;5102970;27;1322;-32
2023/04/18 07:34:32;;;;;;;;;;;;;;;28.99;25.37;100523.97;5100011;28;1161;-31
2023/04/18 07:36:58;;;;;;;;;;;;;;;30.09;23.72;100536.72;5093926;28;1284;-32
2023/04/18 07:39:24;;;;;;;;;;;;;;;29.74;23.79;100527.75;5101493;28;1081;-30
2023/04/18 07:41:49;;;;;;;;;;;;;;;27.92;25.88;100530.25;5113605;28;1472;-29
2023/04/18 07:44:15;;;;;;;;;;;;;;;28.39;26.10;100535.22;5098317;28;1319;-29
2023/04/18 07:46:40;;;;;;;;;;;;;;;30.07;23.72;100531.53;5096902;28;1155;-32
2023/04/18 07:49:06;;;;;;;;;;;;;;;28.05;25.81;100529.53;5109645;28;1581;-29
2023/04/18 07:51:32;;;;;;;;;;;;;;;27.48;27.07;100535.59;5104816;28;1977;-31
2023/04/18 07:53:58;;;;;;;;;;;;;;;27.71;26.96;100534.63;5099590;28;1328;-29
2023/04/18 07:56:23;;;;;;;;;;;;;;;27.45;27.15;100535.97;5103159;28;1149;-29
2023/04/18 07:58:49;;;;;;;;;;;;;;;28.16;26.23;100530.88;5092960;28;1343;-30
2023/04/18 08:01:17;;;;;;;;;;;;;;;29.65;24.76;100537.94;5093915;28;1241;-32
2023/04/18 08:03:43;;;;;;;;;;;;;;;30.02;24.10;100543.00;5095228;28;1008;-30
2023/04/18 08:06:08;;;;;;;;;;;;;;;30.40;23.53;100548.84;5105381;28;1245;-29
2023/04/18 08:08:34;;;;;;;;;;;;;;;28.08;26.36;100542.66;5098466;28;1276;-29
2023/04/18 08:11:00;;;;;;;;;;;;;;;27.66;26.96;100556.78;5098144;28;1968;-30
2023/04/18 08:13:25;;;;;;;;;;;;;;;27.21;27.26;100546.09;5092774;28;1046;-30
2023/04/18 08:15:51;;;;;;;;;;;;;;;26.61;27.64;100553.13;5092429;28;868;-30
2023/04/18 08:18:16;;;;;;;;;;;;;;;27.28;27.13;100559.69;5091753;28;1091;-32
2023/04/18 08:20:42;;;;;;;;;;;;;;;29.17;24.39;100558.63;5094733;28;1206;-29
2023/04/18 08:23:08;;;;;;;;;;;;;;;29.61;23.60;100569.22;5094160;28;904;-30
2023/04/18 08:25:35;;;;;;;;;;;;;;;29.49;23.64;100566.25;5092751;28;1097;-28
2023/04/18 08:28:00;;;;;;;;;;;;;;;26.67;28.07;100565.06;5092981;28;1120;-30
2023/04/18 08:30:26;;;;;;;;;;;;;;;27.47;26.92;100569.88;5099118;28;1910;-30
2023/04/18 08:32:52;;;;;;;;;;;;;;;29.42;23.92;100568.94;5112587;28;1153;-29
2023/04/18 08:35:17;;;;;;;;;;;;;;;29.93;23.09;100574.91;5118041;28;894;-27
2023/04/18 08:37:43;;;;;;;;;;;;;;;30.01;22.79;100571.16;5112872;28;1035;-27
2023/04/18 08:40:08;;;;;;;;;;;;;;;26.92;26.52;100570.19;5112367;28;1030;-31
2023/04/18 08:42:34;;;;;;;;;;;;;;;26.37;27.49;100568.56;5104208;28;1046;-28
2023/04/18 08:45:00;;;;;;;;;;;;;;;28.90;24.06;100571.16;5080919;28;1138;-27
2023/04/18 08:47:29;;;;;;;;;;;;;;;29.64;23.13;100576.09;5111115;28;1070;-27
2023/04/18 08:49:55;;;;;;;;;;;;;;;26.79;26.40;100581.66;5098913;28;1906;-28
2023/04/18 08:52:20;;;;;;;;;;;;;;;26.41;27.46;100579.78;5104042;28;1054;-31
2023/04/18 08:54:47;;;;;;;;;;;;;;;28.98;23.93;100572.91;5084916;28;1270;-30
2023/04/18 08:57:17;;;;;;;;;;;;;;;29.56;23.17;100585.22;5105684;28;1785;-27
2023/04/18 08:59:45;;;;;;;;;;;;;;;29.69;22.79;100582.59;5102570;28;1542;-27
2023/04/18 09:02:11;;;;;;;;;;;;;;;26.69;26.36;100571.13;5098930;28;1489;-28
2023/04/18 09:04:44;;;;;;;;;;;;;;;26.52;26.91;100575.84;5099002;28;1225;-29
2023/04/18 09:07:10;;;;;;;;;;;;;;;29.11;23.61;100575.69;5109945;28;1182;-29
2023/04/18 09:09:42;;;;;;;;;;;;;;;29.74;22.75;100578.41;5098815;28;1018;-28
2023/04/18 09:12:08;;;;;;;;;;;;;;;30.03;22.44;100573.69;5110037;28;950;-28
2023/04/18 09:14:41;;;;;;;;;;;;;;;27.46;25.55;100561.97;5101336;28;1316;-27
2023/04/18 09:17:07;;;;;;;;;;;;;;;26.49;27.27;100566.22;5098330;28;1436;-29
2023/04/18 09:19:33;;;;;;;;;;;;;;;28.79;24.45;100553.59;5103269;28;1147;-30
2023/04/18 09:22:00;;;;;;;;;;;;;;;29.79;23.06;100552.38;5082421;28;907;-30
2023/04/18 09:24:27;;;;;;;;;;;;;;;27.63;25.69;100551.75;5111918;28;1209;-29
2023/04/18 09:26:55;;;;;;;;;;;;;;;26.48;27.44;100559.16;5109164;28;1060;-33
2023/04/18 09:29:39;;;;;;;;;;;;;;;26.36;27.69;100545.28;5103353;28;1518;-28
2023/04/18 09:32:05;;;;;;;;;;;;;;;26.16;28.35;100540.38;5098288;28;1906;-29
2023/04/18 09:34:32;;;;;;;;;;;;;;;27.87;26.01;100538.94;5099214;28;1193;-30
2023/04/18 09:37:11;;;;;;;;;;;;;;;27.81;25.80;100537.84;5098249;28;1197;-30
2023/04/18 09:39:37;;;;;;;;;;;;;;;26.43;28.35;100526.50;5102086;28;1023;-31
2023/04/18 09:42:03;;;;;;;;;;;;;;;27.42;26.71;100522.84;5106846;28;1046;-28
2023/04/18 09:44:28;;;;;;;;;;;;;;;28.02;25.83;100510.97;5098553;28;1030;-27
2023/04/18 09:46:54;;;;;;;;;;;;;;;26.64;28.08;100514.19;5103607;28;1133;-27
2023/04/18 09:49:20;;;;;;;;;;;;;;;27.32;27.44;100518.59;5099459;28;1065;-28
2023/04/18 09:51:45;;;;;;;;;;;;;;;29.00;24.88;100511.22;5098279;28;1971;-28
2023/04/18 09:54:14;;;;;;;;;;;;;;;27.02;27.34;100518.66;5103019;28;1719;-30
2023/04/18 09:56:40;;;;;;;;;;;;;;;26.11;28.86;100517.69;5097147;28;1026;-27
2023/04/18 09:59:07;;;;;;;;;;;;;;;27.72;26.56;100520.09;5104886;28;1463;-27
2023/04/18 10:01:32;;;;;;;;;;;;;;;26.35;28.19;100510.41;5096466;28;984;-28
2023/04/18 10:03:58;;;;;;;;;;;;;;;25.74;28.81;100518.28;5115834;28;1075;-27
2023/04/18 10:06:26;;;;;;;;;;;;;;;28.03;25.58;100524.31;5099806;28;1084;-29
2023/04/18 10:08:51;;;;;;;;;;;;;;;28.94;23.94;100510.16;5117328;28;1050;-31
2023/04/18 10:11:17;;;;;;;;;;;;;;;26.36;28.31;100520.19;5086359;28;1977;-28
2023/04/18 10:13:43;;;;;;;;;;;;;;;26.11;28.78;100515.81;5109575;28;1213;-27
2023/04/18 10:16:09;;;;;;;;;;;;;;;26.75;27.69;100515.56;5109907;28;1046;-30
2023/04/18 10:18:35;;;;;;;;;;;;;;;26.10;28.80;100516.00;5088271;28;1602;-33
2023/04/18 10:21:04;;;;;;;;;;;;;;;26.13;28.74;100516.47;5104521;28;1158;-28
2023/04/18 10:23:30;;;;;;;;;;;;;;;27.94;26.32;100529.03;5101826;28;1107;-29
2023/04/18 10:25:55;;;;;;;;;;;;;;;26.24;28.51;100517.88;5112981;28;1030;-29
2023/04/18 10:28:23;;;;;;;;;;;;;;;26.36;28.55;100507.53;5112467;28;1109;-28
2023/04/18 10:30:50;;;;;;;;;;;;;;;27.64;26.29;100518.31;5087080;28;1926;-30
2023/04/18 10:33:19;;;;;;;;;;;;;;;26.20;28.83;100515.75;5091444;28;1074;-29
2023/04/18 10:36:05;;;;;;;;;;;;;;;26.33;28.75;100517.84;5076920;28;1285;-30
2023/04/18 10:38:31;;;;;;;;;;;;;;;27.49;26.83;100512.97;5076690;28;1105;-28
2023/04/18 10:41:11;;;;;;;;;;;;;;;26.11;29.03;100515.00;5077248;28;1190;-30
2023/04/18 10:43:56;;;;;;;;;;;;;;;27.13;27.81;100506.53;5084935;28;1006;-28
2023/04/18 10:46:21;;;;;;;;;;;;;;;26.79;27.96;100498.00;5094943;28;1053;-28
2023/04/18 10:48:47;;;;;;;;;;;;;;;26.26;29.35;100488.03;5077294;28;855;-29
2023/04/18 10:51:16;;;;;;;;;;;;;;;27.40;27.45;100496.03;5075694;28;1992;-29
2023/04/18 10:53:51;;;;;;;;;;;;;;;26.92;28.09;100491.06;5089441;28;1172;-26
2023/04/18 10:56:17;;;;;;;;;;;;;;;26.84;28.06;100483.94;5078718;28;972;-27
2023/04/18 10:58:43;;;;;;;;;;;;;;;28.03;26.67;100480.22;5079777;28;1138;-29
2023/04/18 11:01:09;;;;;;;;;;;;;;;27.00;27.88;100486.41;5096516;28;1070;-29
2023/04/18 11:03:34;;;;;;;;;;;;;;;26.86;28.17;100490.81;5096605;28;1337;-28
2023/04/18 11:06:03;;;;;;;;;;;;;;;28.02;26.61;100501.00;5094790;28;1052;-29
2023/04/18 11:08:29;;;;;;;;;;;;;;;27.10;28.17;100505.06;5076302;28;1003;-29
2023/04/18 11:10:58;;;;;;;;;;;;;;;26.98;27.98;100506.50;5095077;28;1902;-28
2023/04/18 11:13:23;;;;;;;;;;;;;;;28.20;26.35;100499.69;5091410;28;1299;-29
2023/04/18 11:15:49;;;;;;;;;;;;;;;27.32;27.67;100499.69;5083400;28;924;-27
2023/04/18 11:18:14;;;;;;;;;;;;;;;27.25;28.02;100496.06;5075695;28;1556;-28
2023/04/18 11:20:48;;;;;;;;;;;;;;;27.90;26.91;100484.47;5066791;28;3199;-31
2023/04/18 11:23:22;;;;;;;;;;;;;;;27.20;28.07;100490.41;5076640;28;1189;-30
2023/04/18 11:25:50;;;;;;;;;;;;;;;27.29;28.18;100491.97;5076533;28;1318;-32
2023/04/18 11:28:17;;;;;;;;;;;;;;;27.88;26.94;100494.66;5076098;28;1166;-29
2023/04/18 11:30:43;;;;;;;;;;;;;;;27.28;28.03;100495.69;5084782;28;2039;-27
2023/04/18 11:33:10;;;;;;;;;;;;;;;27.48;27.94;100497.75;5096330;28;1116;-27
2023/04/18 11:35:36;;;;;;;;;;;;;;;28.00;26.56;100486.84;5082935;28;1030;-27
2023/04/18 11:38:01;;;;;;;;;;;;;;;27.23;28.00;100487.31;5098107;28;1085;-29
2023/04/18 11:40:27;;;;;;;;;;;;;;;27.49;28.04;100481.38;5095930;28;1065;-28
2023/04/18 11:42:52;;;;;;;;;;;;;;;27.77;27.10;100478.97;5096566;28;1181;-29
2023/04/18 11:45:18;;;;;;;;;;;;;;;26.90;28.85;100475.06;5096306;28;1062;-30
2023/04/18 11:47:45;;;;;;;;;;;;;;;27.34;28.23;100469.78;5101299;28;1110;-30
2023/04/18 11:50:11;;;;;;;;;;;;;;;28.05;26.76;100456.50;5101890;28;1898;-28
2023/04/18 11:52:37;;;;;;;;;;;;;;;26.89;29.22;100458.03;5095997;28;1134;-30
2023/04/18 11:55:13;;;;;;;;;;;;;;;27.66;28.14;100437.06;5096222;28;1101;-26
2023/04/18 11:57:39;;;;;;;;;;;;;;;28.07;26.86;100419.31;5096655;28;1031;-30
2023/04/18 12:00:08;;;;;;;;;;;;;;;27.10;28.50;100425.91;5101632;28;1015;-31
2023/04/18 12:02:37;;;;;;;;;;;;;;;27.82;28.02;100427.84;5095833;28;1130;-31
2023/04/18 12:05:03;;;;;;;;;;;;;;;27.86;27.50;100432.66;5099892;28;1177;-26
2023/04/18 12:07:32;;;;;;;;;;;;;;;26.89;29.31;100416.72;5095678;28;1034;-28
2023/04/18 12:09:58;;;;;;;;;;;;;;;27.64;28.43;100418.34;5095390;28;1971;-28
2023/04/18 12:12:23;;;;;;;;;;;;;;;27.48;28.47;100411.31;5095497;28;1003;-29
2023/04/18 12:14:56;;;;;;;;;;;;;;;27.20;28.67;100407.53;5101212;28;1565;-31
2023/04/18 12:17:24;;;;;;;;;;;;;;;27.83;27.87;100395.22;5097345;28;964;-28
2023/04/18 12:19:52;;;;;;;;;;;;;;;27.68;28.17;100389.91;5099551;28;1284;-29
2023/04/18 12:22:17;;;;;;;;;;;;;;;27.18;29.31;100406.03;5100356;28;1002;-28
2023/04/18 12:24:43;;;;;;;;;;;;;;;27.86;28.31;100397.53;5102121;28;938;-27
2023/04/18 12:27:10;;;;;;;;;;;;;;;27.61;28.28;100389.81;5089138;28;1104;-28
2023/04/18 12:29:36;;;;;;;;;;;;;;;27.30;28.96;100382.06;5099894;28;1071;-30
2023/04/18 12:32:02;;;;;;;;;;;;;;;27.80;28.34;100375.84;5099376;28;1988;-25
2023/04/18 12:34:27;;;;;;;;;;;;;;;27.83;27.92;100379.00;5100559;28;1265;-29
2023/04/18 12:36:53;;;;;;;;;;;;;;;27.43;28.46;100374.09;5106054;28;1099;-27
2023/04/18 12:39:18;;;;;;;;;;;;;;;27.69;28.60;100369.16;5103846;28;1053;-30
2023/04/18 12:41:44;;;;;;;;;;;;;;;27.58;28.42;100374.00;5102983;28;967;-29
2023/04/18 12:44:10;;;;;;;;;;;;;;;27.35;28.89;100380.47;5110696;28;1229;-29
2023/04/18 12:46:35;;;;;;;;;;;;;;;28.12;28.19;100365.47;5099435;28;1063;-32
2023/04/18 12:49:01;;;;;;;;;;;;;;;27.58;28.46;100368.59;5106604;28;1085;-30